sensor_id;sensor_type;location;lat;lon;timestamp;pressure;altitude;pressure_sealevel;temperature;humidity
32873;BME280;19224;52.462;16.898;2022-08-19T00:00:12;99656.75;;;25.89;77.25
32873;BME280;19224;52.462;16.898;2022-08-19T00:02:58;99658.09;;;25.85;77.45
32873;BME280;19224;52.462;16.898;2022-08-19T00:05:37;99657.09;;;25.86;77.51
32873;BME280;19224;52.462;16.898;2022-08-19T00:08:15;99655.37;;;25.89;77.26
32873;BME280;19224;52.462;16.898;2022-08-19T00:13:25;99653.62;;;25.88;77.65
32873;BME280;19224;52.462;16.898;2022-08-19T00:16:08;99652.78;;;25.87;77.57
32873;BME280;19224;52.462;16.898;2022-08-19T00:18:47;99655.37;;;25.77;77.96
32873;BME280;19224;52.462;16.898;2022-08-19T00:21:34;99659.88;;;25.74;78.06
32873;BME280;19224;52.462;16.898;2022-08-19T00:24:17;99650.76;;;25.73;77.94
32873;BME280;19224;52.462;16.898;2022-08-19T00:27:03;99650.39;;;25.76;77.74
32873;BME280;19224;52.462;16.898;2022-08-19T00:29:44;99646.58;;;25.77;78.01
32873;BME280;19224;52.462;16.898;2022-08-19T00:32:26;99641.57;;;25.77;78.12
32873;BME280;19224;52.462;16.898;2022-08-19T00:35:06;99638.47;;;25.76;77.90
32873;BME280;19224;52.462;16.898;2022-08-19T00:37:42;99641.57;;;25.77;77.91
32873;BME280;19224;52.462;16.898;2022-08-19T00:40:21;99648.47;;;25.77;78.02
32873;BME280;19224;52.462;16.898;2022-08-19T00:43:10;99640.56;;;25.74;78.16
32873;BME280;19224;52.462;16.898;2022-08-19T00:45:56;99641.23;;;25.76;78.11
32873;BME280;19224;52.462;16.898;2022-08-19T00:48:35;99642.61;;;25.76;78.05
32873;BME280;19224;52.462;16.898;2022-08-19T00:51:18;99638.47;;;25.76;78.04
32873;BME280;19224;52.462;16.898;2022-08-19T00:53:59;99645.70;;;25.81;78.08
32873;BME280;19224;52.462;16.898;2022-08-19T00:56:42;99639.98;;;25.82;77.82
32873;BME280;19224;52.462;16.898;2022-08-19T00:59:23;99638.10;;;25.87;77.46
32873;BME280;19224;52.462;16.898;2022-08-19T01:02:03;99636.02;;;25.85;77.53
32873;BME280;19224;52.462;16.898;2022-08-19T01:04:41;99636.38;;;25.86;77.46
32873;BME280;19224;52.462;16.898;2022-08-19T01:07:16;99633.96;;;25.87;77.20
32873;BME280;19224;52.462;16.898;2022-08-19T01:09:56;99636.72;;;25.87;77.37
32873;BME280;19224;52.462;16.898;2022-08-19T01:12:37;99636.89;;;25.89;77.09
32873;BME280;19224;52.462;16.898;2022-08-19T01:15:19;99636.18;;;25.91;76.93
32873;BME280;19224;52.462;16.898;2022-08-19T01:18:00;99626.02;;;25.88;76.91
32873;BME280;19224;52.462;16.898;2022-08-19T01:20:36;99630.49;;;25.85;76.85
32873;BME280;19224;52.462;16.898;2022-08-19T01:23:12;99629.66;;;25.88;76.55
32873;BME280;19224;52.462;16.898;2022-08-19T01:25:53;99632.91;;;25.92;76.47
32873;BME280;19224;52.462;16.898;2022-08-19T01:28:35;99625.84;;;25.89;76.58
32873;BME280;19224;52.462;16.898;2022-08-19T01:31:20;99629.48;;;25.90;76.67
32873;BME280;19224;52.462;16.898;2022-08-19T01:34:02;99628.44;;;25.87;76.94
32873;BME280;19224;52.462;16.898;2022-08-19T01:36:45;99625.68;;;25.87;76.94
32873;BME280;19224;52.462;16.898;2022-08-19T01:39:27;99629.98;;;25.89;76.83
32873;BME280;19224;52.462;16.898;2022-08-19T01:42:10;99622.42;;;25.83;77.14
32873;BME280;19224;52.462;16.898;2022-08-19T01:44:52;99615.52;;;25.79;77.15
32873;BME280;19224;52.462;16.898;2022-08-19T01:47:29;99615.93;;;25.68;77.66
32873;BME280;19224;52.462;16.898;2022-08-19T01:50:12;99617.51;;;25.67;77.92
32873;BME280;19224;52.462;16.898;2022-08-19T01:52:55;99607.20;;;25.53;78.81
32873;BME280;19224;52.462;16.898;2022-08-19T01:55:37;99603.11;;;25.49;78.98
32873;BME280;19224;52.462;16.898;2022-08-19T01:58:24;99600.68;;;25.50;78.82
32873;BME280;19224;52.462;16.898;2022-08-19T02:01:07;99594.12;;;25.55;78.90
32873;BME280;19224;52.462;16.898;2022-08-19T02:03:50;99596.01;;;25.54;78.87
32873;BME280;19224;52.462;16.898;2022-08-19T02:06:30;99596.55;;;25.50;78.94
32873;BME280;19224;52.462;16.898;2022-08-19T02:09:12;99584.50;;;25.43;79.27
32873;BME280;19224;52.462;16.898;2022-08-19T02:11:53;99576.63;;;25.36;79.70
32873;BME280;19224;52.462;16.898;2022-08-19T02:14:37;99587.52;;;25.29;80.26
32873;BME280;19224;52.462;16.898;2022-08-19T02:17:19;99586.67;;;25.25;80.54
32873;BME280;19224;52.462;16.898;2022-08-19T02:20:01;99583.06;;;25.20;80.57
32873;BME280;19224;52.462;16.898;2022-08-19T02:22:43;99564.63;;;25.13;81.03
32873;BME280;19224;52.462;16.898;2022-08-19T02:25:26;99568.42;;;25.08;81.28
32873;BME280;19224;52.462;16.898;2022-08-19T02:28:09;99565.35;;;25.03;81.62
32873;BME280;19224;52.462;16.898;2022-08-19T02:30:48;99554.32;;;24.99;81.79
32873;BME280;19224;52.462;16.898;2022-08-19T02:33:30;99560.02;;;24.93;82.00
32873;BME280;19224;52.462;16.898;2022-08-19T02:36:14;99556.43;;;24.93;82.07
32873;BME280;19224;52.462;16.898;2022-08-19T02:38:57;99554.03;;;24.90;82.28
32873;BME280;19224;52.462;16.898;2022-08-19T02:41:42;99548.52;;;24.86;82.56
32873;BME280;19224;52.462;16.898;2022-08-19T02:44:23;99551.28;;;24.90;82.31
32873;BME280;19224;52.462;16.898;2022-08-19T02:47:02;99559.55;;;24.90;82.45
32873;BME280;19224;52.462;16.898;2022-08-19T02:49:45;99552.32;;;24.89;82.38
32873;BME280;19224;52.462;16.898;2022-08-19T02:52:27;99554.71;;;24.92;82.30
32873;BME280;19224;52.462;16.898;2022-08-19T02:55:14;99558.50;;;24.91;82.33
32873;BME280;19224;52.462;16.898;2022-08-19T02:57:53;99554.01;;;24.94;82.32
32873;BME280;19224;52.462;16.898;2022-08-19T03:00:34;99546.08;;;24.95;82.18
32873;BME280;19224;52.462;16.898;2022-08-19T03:03:29;99551.93;;;24.96;82.14
32873;BME280;19224;52.462;16.898;2022-08-19T03:06:16;99542.65;;;24.93;82.27
32873;BME280;19224;52.462;16.898;2022-08-19T03:08:57;99541.97;;;24.91;82.47
32873;BME280;19224;52.462;16.898;2022-08-19T03:11:39;99542.14;;;24.89;82.47
32873;BME280;19224;52.462;16.898;2022-08-19T03:14:19;99536.28;;;24.88;82.44
32873;BME280;19224;52.462;16.898;2022-08-19T03:17:01;99537.84;;;24.91;82.47
32873;BME280;19224;52.462;16.898;2022-08-19T03:19:43;99532.16;;;24.88;82.54
32873;BME280;19224;52.462;16.898;2022-08-19T03:22:21;99529.78;;;24.78;83.15
32873;BME280;19224;52.462;16.898;2022-08-19T03:25:03;99527.89;;;24.74;83.40
32873;BME280;19224;52.462;16.898;2022-08-19T03:27:45;99526.36;;;24.68;83.80
32873;BME280;19224;52.462;16.898;2022-08-19T03:30:25;99523.80;;;24.66;83.90
32873;BME280;19224;52.462;16.898;2022-08-19T03:33:10;99529.64;;;24.63;84.09
32873;BME280;19224;52.462;16.898;2022-08-19T03:38:34;99530.68;;;24.62;84.50
32873;BME280;19224;52.462;16.898;2022-08-19T03:41:20;99530.31;;;24.65;84.21
32873;BME280;19224;52.462;16.898;2022-08-19T03:44:00;99526.74;;;24.61;84.46
32873;BME280;19224;52.462;16.898;2022-08-19T03:46:42;99530.36;;;24.57;84.52
32873;BME280;19224;52.462;16.898;2022-08-19T03:49:23;99518.12;;;24.52;84.78
32873;BME280;19224;52.462;16.898;2022-08-19T03:52:11;99521.73;;;24.48;85.10
32873;BME280;19224;52.462;16.898;2022-08-19T03:54:57;99517.25;;;24.43;85.39
32873;BME280;19224;52.462;16.898;2022-08-19T03:57:40;99525.88;;;24.44;85.58
32873;BME280;19224;52.462;16.898;2022-08-19T04:00:20;99539.32;;;24.55;85.21
32873;BME280;19224;52.462;16.898;2022-08-19T04:02:58;99543.61;;;24.62;84.67
32873;BME280;19224;52.462;16.898;2022-08-19T04:05:37;99545.17;;;24.56;85.25
32873;BME280;19224;52.462;16.898;2022-08-19T04:08:15;99534.13;;;24.48;85.64
32873;BME280;19224;52.462;16.898;2022-08-19T04:10:55;99543.77;;;24.48;85.68
32873;BME280;19224;52.462;16.898;2022-08-19T04:13:35;99550.47;;;24.46;85.80
32873;BME280;19224;52.462;16.898;2022-08-19T04:16:14;99550.65;;;24.40;85.91
32873;BME280;19224;52.462;16.898;2022-08-19T04:18:54;99555.81;;;24.39;86.15
32873;BME280;19224;52.462;16.898;2022-08-19T04:21:35;99559.27;;;24.37;86.12
32873;BME280;19224;52.462;16.898;2022-08-19T04:24:16;99564.09;;;24.35;86.46
32873;BME280;19224;52.462;16.898;2022-08-19T04:27:00;99551.02;;;24.33;86.57
32873;BME280;19224;52.462;16.898;2022-08-19T04:29:41;99546.53;;;24.28;86.83
32873;BME280;19224;52.462;16.898;2022-08-19T04:32:19;99544.49;;;24.22;87.21
32873;BME280;19224;52.462;16.898;2022-08-19T04:34:55;99529.17;;;24.12;87.94
32873;BME280;19224;52.462;16.898;2022-08-19T04:37:35;99526.58;;;24.10;88.05
32873;BME280;19224;52.462;16.898;2022-08-19T04:40:13;99541.70;;;24.10;88.16
32873;BME280;19224;52.462;16.898;2022-08-19T04:43:09;99548.95;;;24.15;87.94
32873;BME280;19224;52.462;16.898;2022-08-19T04:45:53;99565.30;;;24.29;87.41
32873;BME280;19224;52.462;16.898;2022-08-19T04:48:34;99581.64;;;24.46;86.52
32873;BME280;19224;52.462;16.898;2022-08-19T04:51:12;99586.98;;;24.64;85.71
32873;BME280;19224;52.462;16.898;2022-08-19T04:53:52;99571.29;;;24.72;85.35
32873;BME280;19224;52.462;16.898;2022-08-19T04:56:34;99565.42;;;24.75;84.87
32873;BME280;19224;52.462;16.898;2022-08-19T04:59:10;99563.71;;;24.78;84.74
32873;BME280;19224;52.462;16.898;2022-08-19T05:01:49;99546.65;;;24.78;84.47
32873;BME280;19224;52.462;16.898;2022-08-19T05:04:27;99535.16;;;24.67;84.85
32873;BME280;19224;52.462;16.898;2022-08-19T05:07:09;99532.39;;;24.63;85.10
32873;BME280;19224;52.462;16.898;2022-08-19T05:09:51;99542.05;;;24.67;85.05
32873;BME280;19224;52.462;16.898;2022-08-19T05:12:34;99557.16;;;24.75;84.82
32873;BME280;19224;52.462;16.898;2022-08-19T05:15:14;99559.69;;;24.92;84.02
32873;BME280;19224;52.462;16.898;2022-08-19T05:17:53;99547.09;;;25.02;83.52
32873;BME280;19224;52.462;16.898;2022-08-19T05:20:46;99544.34;;;24.98;83.46
32873;BME280;19224;52.462;16.898;2022-08-19T05:23:44;99540.23;;;24.94;83.45
32873;BME280;19224;52.462;16.898;2022-08-19T05:26:29;99530.25;;;24.93;83.34
32873;BME280;19224;52.462;16.898;2022-08-19T05:29:14;99530.09;;;24.82;83.63
32873;BME280;19224;52.462;16.898;2022-08-19T05:32:00;99530.80;;;24.80;83.97
32873;BME280;19224;52.462;16.898;2022-08-19T05:34:39;99529.77;;;24.85;83.81
32873;BME280;19224;52.462;16.898;2022-08-19T05:37:14;99519.73;;;24.92;83.51
32873;BME280;19224;52.462;16.898;2022-08-19T05:39:57;99516.95;;;25.00;83.11
32873;BME280;19224;52.462;16.898;2022-08-19T05:42:38;99520.89;;;25.06;82.65
32873;BME280;19224;52.462;16.898;2022-08-19T05:45:13;99527.05;;;25.20;82.22
32873;BME280;19224;52.462;16.898;2022-08-19T05:47:54;99524.23;;;25.32;81.50
32873;BME280;19224;52.462;16.898;2022-08-19T05:50:27;99518.72;;;25.32;81.26
32873;BME280;19224;52.462;16.898;2022-08-19T05:53:05;99532.50;;;25.36;80.96
32873;BME280;19224;52.462;16.898;2022-08-19T05:55:51;99521.06;;;25.43;80.55
32873;BME280;19224;52.462;16.898;2022-08-19T05:58:36;99528.97;;;25.50;80.24
32873;BME280;19224;52.462;16.898;2022-08-19T06:01:25;99523.41;;;25.58;80.01
32873;BME280;19224;52.462;16.898;2022-08-19T06:04:07;99520.78;;;25.60;79.90
32873;BME280;19224;52.462;16.898;2022-08-19T06:06:49;99513.87;;;25.64;80.16
32873;BME280;19224;52.462;16.898;2022-08-19T06:09:25;99510.25;;;25.64;79.61
32873;BME280;19224;52.462;16.898;2022-08-19T06:12:02;99513.87;;;25.64;79.69
32873;BME280;19224;52.462;16.898;2022-08-19T06:14:43;99521.91;;;25.74;79.40
32873;BME280;19224;52.462;16.898;2022-08-19T06:17:30;99528.42;;;25.81;78.87
32873;BME280;19224;52.462;16.898;2022-08-19T06:20:14;99526.33;;;25.83;78.64
32873;BME280;19224;52.462;16.898;2022-08-19T06:22:57;99526.11;;;25.92;78.27
32873;BME280;19224;52.462;16.898;2022-08-19T06:25:40;99529.98;;;26.06;77.89
32873;BME280;19224;52.462;16.898;2022-08-19T06:28:21;99523.84;;;26.18;77.17
32873;BME280;19224;52.462;16.898;2022-08-19T06:30:58;99527.33;;;26.31;76.73
32873;BME280;19224;52.462;16.898;2022-08-19T06:33:45;99516.76;;;26.38;76.25
32873;BME280;19224;52.462;16.898;2022-08-19T06:36:37;99521.18;;;26.43;75.78
32873;BME280;19224;52.462;16.898;2022-08-19T06:39:24;99513.52;;;26.53;75.50
32873;BME280;19224;52.462;16.898;2022-08-19T06:42:18;99514.61;;;26.63;74.96
32873;BME280;19224;52.462;16.898;2022-08-19T06:45:11;99515.20;;;26.73;74.66
32873;BME280;19224;52.462;16.898;2022-08-19T06:47:54;99508.72;;;26.80;74.24
32873;BME280;19224;52.462;16.898;2022-08-19T06:50:39;99507.16;;;26.82;73.89
32873;BME280;19224;52.462;16.898;2022-08-19T06:53:24;99513.77;;;26.91;73.79
32873;BME280;19224;52.462;16.898;2022-08-19T06:56:10;99515.21;;;27.02;73.21
32873;BME280;19224;52.462;16.898;2022-08-19T06:58:54;99521.28;;;27.16;72.57
32873;BME280;19224;52.462;16.898;2022-08-19T07:01:43;99529.27;;;27.25;71.85
32873;BME280;19224;52.462;16.898;2022-08-19T07:04:30;99539.51;;;27.35;71.32
32873;BME280;19224;52.462;16.898;2022-08-19T07:07:14;99544.28;;;27.41;70.75
32873;BME280;19224;52.462;16.898;2022-08-19T07:09:56;99543.89;;;27.44;70.66
32873;BME280;19224;52.462;16.898;2022-08-19T07:12:44;99539.48;;;27.49;70.57
32873;BME280;19224;52.462;16.898;2022-08-19T07:15:38;99535.48;;;27.52;70.21
32873;BME280;19224;52.462;16.898;2022-08-19T07:18:12;99539.72;;;27.58;69.27
32873;BME280;19224;52.462;16.898;2022-08-19T07:21:01;99544.78;;;27.65;69.07
32873;BME280;19224;52.462;16.898;2022-08-19T07:23:40;99552.83;;;27.75;68.72
32873;BME280;19224;52.462;16.898;2022-08-19T07:26:35;99556.06;;;27.78;68.49
32873;BME280;19224;52.462;16.898;2022-08-19T07:29:21;99557.89;;;27.82;67.82
32873;BME280;19224;52.462;16.898;2022-08-19T07:31:58;99567.54;;;27.86;67.85
32873;BME280;19224;52.462;16.898;2022-08-19T07:34:44;99567.69;;;27.88;67.97
32873;BME280;19224;52.462;16.898;2022-08-19T07:37:31;99571.58;;;27.94;67.54
32873;BME280;19224;52.462;16.898;2022-08-19T07:40:22;99578.68;;;28.03;67.31
32873;BME280;19224;52.462;16.898;2022-08-19T07:43:09;99579.88;;;28.04;67.27
32873;BME280;19224;52.462;16.898;2022-08-19T07:46:01;99580.50;;;28.10;67.24
32873;BME280;19224;52.462;16.898;2022-08-19T07:48:48;99588.98;;;28.19;66.80
32873;BME280;19224;52.462;16.898;2022-08-19T07:51:24;99586.38;;;28.32;66.44
32873;BME280;19224;52.462;16.898;2022-08-19T07:54:11;99584.13;;;28.42;65.96
32873;BME280;19224;52.462;16.898;2022-08-19T07:56:57;99587.03;;;28.45;65.41
32873;BME280;19224;52.462;16.898;2022-08-19T07:59:41;99586.69;;;28.54;65.08
32873;BME280;19224;52.462;16.898;2022-08-19T08:02:32;99580.81;;;28.64;64.77
32873;BME280;19224;52.462;16.898;2022-08-19T08:05:25;99577.50;;;28.75;64.24
32873;BME280;19224;52.462;16.898;2022-08-19T08:08:21;99585.78;;;28.85;63.90
32873;BME280;19224;52.462;16.898;2022-08-19T08:10:58;99574.75;;;29.02;63.86
32873;BME280;19224;52.462;16.898;2022-08-19T08:13:39;99579.08;;;29.11;63.30
32873;BME280;19224;52.462;16.898;2022-08-19T08:16:24;99570.11;;;29.16;62.74
32873;BME280;19224;52.462;16.898;2022-08-19T08:19:05;99567.80;;;29.19;62.48
32873;BME280;19224;52.462;16.898;2022-08-19T08:21:50;99571.22;;;29.21;62.80
32873;BME280;19224;52.462;16.898;2022-08-19T08:24:33;99569.73;;;29.19;63.18
32873;BME280;19224;52.462;16.898;2022-08-19T08:27:29;99565.57;;;29.19;62.97
32873;BME280;19224;52.462;16.898;2022-08-19T08:30:38;99570.11;;;29.16;63.35
32873;BME280;19224;52.462;16.898;2022-08-19T08:33:32;99581.50;;;29.10;63.22
32873;BME280;19224;52.462;16.898;2022-08-19T08:36:14;99581.40;;;29.08;63.33
32873;BME280;19224;52.462;16.898;2022-08-19T08:39:03;99568.82;;;29.12;63.64
32873;BME280;19224;52.462;16.898;2022-08-19T08:42:21;99575.83;;;29.25;63.28
32873;BME280;19224;52.462;16.898;2022-08-19T08:45:10;99575.06;;;29.37;62.51
32873;BME280;19224;52.462;16.898;2022-08-19T08:47:54;99586.33;;;29.46;62.35
32873;BME280;19224;52.462;16.898;2022-08-19T08:50:45;99585.34;;;29.60;61.62
32873;BME280;19224;52.462;16.898;2022-08-19T08:53:33;99594.48;;;29.71;60.69
32873;BME280;19224;52.462;16.898;2022-08-19T08:56:17;99596.85;;;29.81;60.68
32873;BME280;19224;52.462;16.898;2022-08-19T08:59:10;99600.87;;;29.95;60.20
32873;BME280;19224;52.462;16.898;2022-08-19T09:01:53;99598.53;;;29.99;60.66
32873;BME280;19224;52.462;16.898;2022-08-19T09:04:41;99594.63;;;30.10;59.78
32873;BME280;19224;52.462;16.898;2022-08-19T09:10:56;99602.48;;;35.17;42.40
32873;BME280;19224;52.462;16.898;2022-08-19T09:14:10;99603.70;;;37.92;35.99
32873;BME280;19224;52.462;16.898;2022-08-19T09:16:41;99614.60;;;39.34;32.95
32873;BME280;19224;52.462;16.898;2022-08-19T09:19:11;99611.52;;;39.09;33.23
32873;BME280;19224;52.462;16.898;2022-08-19T09:21:41;99613.55;;;39.87;31.70
32873;BME280;19224;52.462;16.898;2022-08-19T09:24:11;99612.17;;;39.94;31.59
32873;BME280;19224;52.462;16.898;2022-08-19T09:26:42;99610.39;;;40.30;30.93
32873;BME280;19224;52.462;16.898;2022-08-19T09:29:13;99616.44;;;40.63;30.18
32873;BME280;19224;52.462;16.898;2022-08-19T09:31:43;99619.54;;;40.64;30.01
32873;BME280;19224;52.462;16.898;2022-08-19T09:34:13;99608.73;;;40.44;30.16
32873;BME280;19224;52.462;16.898;2022-08-19T09:36:43;99603.67;;;39.11;32.22
32873;BME280;19224;52.462;16.898;2022-08-19T09:39:13;99610.28;;;38.95;32.47
32873;BME280;19224;52.462;16.898;2022-08-19T09:41:44;99609.44;;;38.69;32.77
32873;BME280;19224;52.462;16.898;2022-08-19T09:44:14;99609.06;;;40.47;29.91
32873;BME280;19224;52.462;16.898;2022-08-19T09:46:45;99616.01;;;39.73;30.90
32873;BME280;19224;52.462;16.898;2022-08-19T09:49:20;99614.20;;;40.78;28.82
32873;BME280;19224;52.462;16.898;2022-08-19T09:51:53;99611.66;;;40.71;28.87
32873;BME280;19224;52.462;16.898;2022-08-19T09:54:25;99600.40;;;40.96;28.65
32873;BME280;19224;52.462;16.898;2022-08-19T09:56:59;99601.50;;;40.73;29.00
32873;BME280;19224;52.462;16.898;2022-08-19T09:59:30;99590.70;;;40.47;29.09
32873;BME280;19224;52.462;16.898;2022-08-19T10:02:00;99599.00;;;40.07;29.78
32873;BME280;19224;52.462;16.898;2022-08-19T10:04:30;99600.50;;;39.34;31.10
32873;BME280;19224;52.462;16.898;2022-08-19T10:07:17;99594.84;;;38.76;31.90
32873;BME280;19224;52.462;16.898;2022-08-19T10:09:47;99602.22;;;38.54;31.91
32873;BME280;19224;52.462;16.898;2022-08-19T10:12:18;99593.09;;;37.99;31.99
32873;BME280;19224;52.462;16.898;2022-08-19T10:14:48;99597.34;;;38.44;31.56
32873;BME280;19224;52.462;16.898;2022-08-19T10:17:20;99593.88;;;38.16;31.91
32873;BME280;19224;52.462;16.898;2022-08-19T10:19:50;99577.06;;;37.59;32.90
32873;BME280;19224;52.462;16.898;2022-08-19T10:22:21;99577.88;;;38.43;31.97
32873;BME280;19224;52.462;16.898;2022-08-19T10:24:51;99574.55;;;38.22;31.54
32873;BME280;19224;52.462;16.898;2022-08-19T10:27:22;99578.35;;;38.59;31.21
32873;BME280;19224;52.462;16.898;2022-08-19T10:29:53;99568.34;;;38.22;32.19
32873;BME280;19224;52.462;16.898;2022-08-19T10:32:23;99556.98;;;37.72;33.09
32873;BME280;19224;52.462;16.898;2022-08-19T10:34:54;99541.14;;;37.28;33.51
32873;BME280;19224;52.462;16.898;2022-08-19T10:37:25;99542.79;;;37.62;32.57
32873;BME280;19224;52.462;16.898;2022-08-19T10:39:55;99557.66;;;38.24;30.93
32873;BME280;19224;52.462;16.898;2022-08-19T10:42:25;99565.89;;;38.52;30.44
32873;BME280;19224;52.462;16.898;2022-08-19T10:44:56;99560.29;;;39.17;29.27
32873;BME280;19224;52.462;16.898;2022-08-19T10:47:26;99550.73;;;39.57;28.74
32873;BME280;19224;52.462;16.898;2022-08-19T10:49:57;99562.27;;;39.56;28.77
32873;BME280;19224;52.462;16.898;2022-08-19T10:52:48;99555.13;;;38.23;30.85
32873;BME280;19224;52.462;16.898;2022-08-19T10:55:24;99561.16;;;39.18;29.29
32873;BME280;19224;52.462;16.898;2022-08-19T10:58:16;99556.63;;;38.81;30.03
32873;BME280;19224;52.462;16.898;2022-08-19T11:00:55;99568.13;;;38.50;30.79
32873;BME280;19224;52.462;16.898;2022-08-19T11:03:27;99567.03;;;39.14;29.61
32873;BME280;19224;52.462;16.898;2022-08-19T11:06:08;99567.89;;;39.14;29.10
32873;BME280;19224;52.462;16.898;2022-08-19T11:08:37;99551.05;;;37.90;31.07
32873;BME280;19224;52.462;16.898;2022-08-19T11:11:08;99547.95;;;36.66;33.33
32873;BME280;19224;52.462;16.898;2022-08-19T11:13:41;99551.17;;;37.57;31.97
32873;BME280;19224;52.462;16.898;2022-08-19T11:16:16;99551.66;;;37.35;32.10
32873;BME280;19224;52.462;16.898;2022-08-19T11:19:01;99553.98;;;37.57;32.09
32873;BME280;19224;52.462;16.898;2022-08-19T11:25:11;99564.67;;;39.35;29.50
32873;BME280;19224;52.462;16.898;2022-08-19T11:27:42;99563.36;;;39.47;29.54
32873;BME280;19224;52.462;16.898;2022-08-19T11:30:14;99571.08;;;40.13;28.56
32873;BME280;19224;52.462;16.898;2022-08-19T11:32:45;99560.83;;;40.05;28.36
32873;BME280;19224;52.462;16.898;2022-08-19T11:35:17;99554.55;;;39.02;29.83
32873;BME280;19224;52.462;16.898;2022-08-19T11:37:48;99556.63;;;38.81;30.24
32873;BME280;19224;52.462;16.898;2022-08-19T11:40:18;99560.01;;;37.11;32.91
32873;BME280;19224;52.462;16.898;2022-08-19T11:42:48;99559.51;;;36.39;34.42
32873;BME280;19224;52.462;16.898;2022-08-19T11:45:27;99556.97;;;35.84;35.46
32873;BME280;19224;52.462;16.898;2022-08-19T11:47:58;99567.27;;;35.21;36.78
32873;BME280;19224;52.462;16.898;2022-08-19T11:50:28;99569.10;;;34.72;37.70
32873;BME280;19224;52.462;16.898;2022-08-19T11:52:58;99565.63;;;35.11;37.04
32873;BME280;19224;52.462;16.898;2022-08-19T11:55:29;99568.05;;;35.42;36.38
32873;BME280;19224;52.462;16.898;2022-08-19T11:57:59;99577.39;;;35.45;35.76
32873;BME280;19224;52.462;16.898;2022-08-19T12:00:30;99569.72;;;35.41;35.77
32873;BME280;19224;52.462;16.898;2022-08-19T12:03:00;99569.58;;;35.47;35.89
32873;BME280;19224;52.462;16.898;2022-08-19T12:05:31;99576.82;;;35.46;35.76
32873;BME280;19224;52.462;16.898;2022-08-19T12:08:01;99579.54;;;34.86;36.73
32873;BME280;19224;52.462;16.898;2022-08-19T12:10:32;99583.48;;;34.87;36.90
32873;BME280;19224;52.462;16.898;2022-08-19T12:13:04;99589.96;;;35.11;36.27
32873;BME280;19224;52.462;16.898;2022-08-19T12:15:39;99593.52;;;35.29;35.96
32873;BME280;19224;52.462;16.898;2022-08-19T12:18:10;99583.63;;;35.61;35.16
32873;BME280;19224;52.462;16.898;2022-08-19T12:20:43;99578.48;;;35.44;35.37
32873;BME280;19224;52.462;16.898;2022-08-19T12:23:15;99578.01;;;35.24;35.84
32873;BME280;19224;52.462;16.898;2022-08-19T12:25:48;99580.42;;;35.32;35.71
32873;BME280;19224;52.462;16.898;2022-08-19T12:28:24;99580.64;;;35.77;34.76
32873;BME280;19224;52.462;16.898;2022-08-19T12:30:56;99587.13;;;35.77;34.89
32873;BME280;19224;52.462;16.898;2022-08-19T12:33:26;99590.70;;;35.64;35.24
32873;BME280;19224;52.462;16.898;2022-08-19T12:36:04;99585.02;;;36.23;34.53
32873;BME280;19224;52.462;16.898;2022-08-19T12:38:34;99597.23;;;38.15;31.29
32873;BME280;19224;52.462;16.898;2022-08-19T12:41:06;99597.31;;;37.99;31.40
32873;BME280;19224;52.462;16.898;2022-08-19T12:43:38;99598.06;;;37.73;31.74
32873;BME280;19224;52.462;16.898;2022-08-19T12:46:08;99606.69;;;39.34;29.43
32873;BME280;19224;52.462;16.898;2022-08-19T12:48:39;99609.84;;;39.40;29.37
32873;BME280;19224;52.462;16.898;2022-08-19T12:51:15;99604.96;;;38.99;31.18
32873;BME280;19224;52.462;16.898;2022-08-19T12:53:46;99597.05;;;38.96;31.58
32873;BME280;19224;52.462;16.898;2022-08-19T12:56:16;99610.67;;;38.54;32.19
32873;BME280;19224;52.462;16.898;2022-08-19T12:58:47;99602.03;;;38.63;32.21
32873;BME280;19224;52.462;16.898;2022-08-19T13:01:19;99603.27;;;38.45;32.65
32873;BME280;19224;52.462;16.898;2022-08-19T13:03:51;99603.41;;;38.58;32.43
32873;BME280;19224;52.462;16.898;2022-08-19T13:06:23;99613.25;;;38.34;32.69
32873;BME280;19224;52.462;16.898;2022-08-19T13:08:55;99597.39;;;37.66;33.91
32873;BME280;19224;52.462;16.898;2022-08-19T13:11:25;99600.30;;;38.11;33.20
32873;BME280;19224;52.462;16.898;2022-08-19T13:13:57;99596.95;;;37.74;33.66
32873;BME280;19224;52.462;16.898;2022-08-19T13:16:28;99613.55;;;38.83;31.87
32873;BME280;19224;52.462;16.898;2022-08-19T13:18:59;99604.49;;;38.54;32.26
32873;BME280;19224;52.462;16.898;2022-08-19T13:21:31;99604.13;;;39.01;31.68
32873;BME280;19224;52.462;16.898;2022-08-19T13:24:01;99614.98;;;39.16;31.26
32873;BME280;19224;52.462;16.898;2022-08-19T13:26:31;99614.52;;;39.24;31.04
32873;BME280;19224;52.462;16.898;2022-08-19T13:29:01;99613.37;;;38.70;31.97
32873;BME280;19224;52.462;16.898;2022-08-19T13:31:49;99610.57;;;38.94;31.19
32873;BME280;19224;52.462;16.898;2022-08-19T13:34:37;99609.51;;;38.50;31.89
32873;BME280;19224;52.462;16.898;2022-08-19T13:37:08;99608.41;;;38.32;32.09
32873;BME280;19224;52.462;16.898;2022-08-19T13:39:38;99617.86;;;39.21;30.75
32873;BME280;19224;52.462;16.898;2022-08-19T13:42:08;99613.51;;;39.09;30.80
32873;BME280;19224;52.462;16.898;2022-08-19T13:44:39;99611.52;;;39.09;30.97
32873;BME280;19224;52.462;16.898;2022-08-19T13:47:09;99609.46;;;39.65;30.17
32873;BME280;19224;52.462;16.898;2022-08-19T13:49:41;99614.09;;;39.45;30.20
32873;BME280;19224;52.462;16.898;2022-08-19T13:52:11;99615.72;;;39.72;29.80
32873;BME280;19224;52.462;16.898;2022-08-19T13:54:42;99618.95;;;39.98;29.43
32873;BME280;19224;52.462;16.898;2022-08-19T13:57:14;99618.47;;;40.06;29.26
32873;BME280;19224;52.462;16.898;2022-08-19T13:59:44;99617.44;;;40.32;28.83
32873;BME280;19224;52.462;16.898;2022-08-19T14:02:14;99615.00;;;40.48;28.70
32873;BME280;19224;52.462;16.898;2022-08-19T14:04:44;99614.88;;;39.74;29.55